Time;durP1;ratioP1;P1;durP2;ratioP2;P2;SDS_P1;SDS_P2;PMS_P1;PMS_P2;Temp;Humidity;BMP_temperature;BMP_pressure;BME280_temperature;BME280_humidity;BME280_pressure;Samples;Min_cycle;Max_cycle;Signal;HPM_P1;HPM_P2
2022/01/06 00:01:58;;;;;;;;;;;;;;;2.36;100.00;99622.75;5070370;28;926;-71
2022/01/06 00:04:24;;;;;;;;;;;;;;;2.34;100.00;99627.38;5070241;28;1934;-71
2022/01/06 00:06:50;;;;;;;;;;;;;;;2.29;100.00;99630.31;5069821;28;809;-70
2022/01/06 00:09:18;;;;;;;;;;;;;;;2.21;100.00;99639.81;5070454;28;1386;-71
2022/01/06 00:11:45;;;;;;;;;;;;;;;2.11;100.00;99637.72;5070774;28;970;-70
2022/01/06 00:14:16;;;;;;;;;;;;;;;1.99;100.00;99644.72;5074470;28;792;-70
2022/01/06 00:16:57;;;;;;;;;;;;;;;1.88;100.00;99652.53;5074201;28;998;-71
2022/01/06 00:24:52;;;;;;;;;;;;;;;1.75;100.00;99657.81;5074871;28;1982;-72
2022/01/06 00:27:19;;;;;;;;;;;;;;;1.77;100.00;99663.91;5073855;28;769;-71
2022/01/06 00:29:45;;;;;;;;;;;;;;;1.81;100.00;99664.59;5074064;28;1286;-72
2022/01/06 00:32:11;;;;;;;;;;;;;;;1.76;100.00;99659.50;5074248;28;986;-71
2022/01/06 00:34:39;;;;;;;;;;;;;;;1.78;100.00;99678.19;5074392;28;1002;-71
2022/01/06 00:37:07;;;;;;;;;;;;;;;1.75;100.00;99683.69;5074071;28;764;-72
2022/01/06 00:39:33;;;;;;;;;;;;;;;1.74;100.00;99682.84;5074239;28;1373;-71
2022/01/06 00:42:00;;;;;;;;;;;;;;;1.71;100.00;99687.50;5074013;28;1053;-72
2022/01/06 00:44:27;;;;;;;;;;;;;;;1.60;100.00;99686.34;5074126;28;1902;-72
2022/01/06 00:46:53;;;;;;;;;;;;;;;1.48;100.00;99696.00;5073519;28;982;-71
2022/01/06 00:49:20;;;;;;;;;;;;;;;1.34;100.00;99702.16;5073786;28;1284;-71
2022/01/06 00:51:48;;;;;;;;;;;;;;;1.26;100.00;99698.22;5073779;28;904;-71
2022/01/06 00:54:14;;;;;;;;;;;;;;;1.11;100.00;99700.84;5074145;28;851;-72
2022/01/06 00:56:40;;;;;;;;;;;;;;;1.08;100.00;99706.38;5055718;28;785;-71
2022/01/06 00:59:07;;;;;;;;;;;;;;;1.09;100.00;99704.53;5073978;28;1297;-70
2022/01/06 01:01:33;;;;;;;;;;;;;;;1.16;100.00;99713.91;5073899;28;840;-70
2022/01/06 01:03:59;;;;;;;;;;;;;;;1.13;100.00;99722.97;5073294;28;1914;-70
2022/01/06 01:06:26;;;;;;;;;;;;;;;1.03;100.00;99726.28;5073420;28;798;-71
2022/01/06 01:08:53;;;;;;;;;;;;;;;0.87;100.00;99708.47;5073666;28;1282;-72
2022/01/06 01:11:19;;;;;;;;;;;;;;;0.82;100.00;99731.91;5074323;28;879;-71
2022/01/06 01:13:55;;;;;;;;;;;;;;;0.69;100.00;99736.22;5074843;28;982;-72
2022/01/06 01:16:24;;;;;;;;;;;;;;;0.58;100.00;99732.31;5074248;28;983;-71
2022/01/06 01:18:50;;;;;;;;;;;;;;;0.54;100.00;99743.28;5073290;28;1363;-71
2022/01/06 01:21:17;;;;;;;;;;;;;;;0.49;100.00;99740.84;5073396;28;952;-72
2022/01/06 01:23:43;;;;;;;;;;;;;;;0.40;100.00;99742.22;5072599;28;1983;-71
2022/01/06 01:26:11;;;;;;;;;;;;;;;0.35;100.00;99746.06;5073149;28;974;-72
2022/01/06 01:28:43;;;;;;;;;;;;;;;0.25;100.00;99751.91;5073082;28;1284;-71
2022/01/06 01:31:23;;;;;;;;;;;;;;;0.23;100.00;99761.84;5073432;28;989;-71
2022/01/06 01:33:51;;;;;;;;;;;;;;;0.20;100.00;99761.13;5072978;28;970;-70
2022/01/06 01:36:17;;;;;;;;;;;;;;;0.22;100.00;99767.25;5072734;28;760;-71
2022/01/06 01:38:43;;;;;;;;;;;;;;;0.24;100.00;99770.69;5073019;28;1326;-70
2022/01/06 01:41:11;;;;;;;;;;;;;;;0.27;100.00;99779.41;5055000;28;738;-71
2022/01/06 01:43:38;;;;;;;;;;;;;;;0.35;100.00;99784.34;5055063;28;1919;-71
2022/01/06 01:46:10;;;;;;;;;;;;;;;0.39;100.00;99777.00;5072670;28;797;-68
2022/01/06 01:48:40;;;;;;;;;;;;;;;0.42;100.00;99784.88;5072638;28;1381;-70
2022/01/06 01:51:08;;;;;;;;;;;;;;;0.47;100.00;99798.84;5072675;28;1061;-70
2022/01/06 01:53:35;;;;;;;;;;;;;;;0.49;100.00;99802.28;5053565;28;895;-70
2022/01/06 01:56:01;;;;;;;;;;;;;;;0.53;100.00;99805.66;5072589;28;967;-71
2022/01/06 01:58:29;;;;;;;;;;;;;;;0.53;100.00;99811.84;5072945;28;1324;-72
2022/01/06 02:00:55;;;;;;;;;;;;;;;0.54;100.00;99818.06;5072796;28;803;-71
2022/01/06 02:03:21;;;;;;;;;;;;;;;0.54;100.00;99810.91;5054737;28;1910;-72
2022/01/06 02:05:47;;;;;;;;;;;;;;;0.53;100.00;99816.34;5072365;28;994;-71
2022/01/06 02:08:14;;;;;;;;;;;;;;;0.53;100.00;99817.19;5072774;28;1393;-72
2022/01/06 02:10:40;;;;;;;;;;;;;;;0.53;100.00;99819.00;5074918;28;995;-72
2022/01/06 02:13:06;;;;;;;;;;;;;;;0.57;100.00;99823.22;5072808;28;1007;-71
2022/01/06 02:15:34;;;;;;;;;;;;;;;0.56;100.00;99821.50;5071724;28;1555;-70
2022/01/06 02:18:00;;;;;;;;;;;;;;;0.58;100.00;99822.28;5071668;28;1280;-71
2022/01/06 02:20:28;;;;;;;;;;;;;;;0.57;100.00;99826.75;5071928;28;789;-70
2022/01/06 02:22:55;;;;;;;;;;;;;;;0.55;100.00;99838.47;5071892;28;930;-71
2022/01/06 02:25:22;;;;;;;;;;;;;;;0.55;100.00;99843.81;5071772;28;1891;-70
2022/01/06 02:27:50;;;;;;;;;;;;;;;0.59;100.00;99850.69;5071486;28;1376;-71
2022/01/06 02:30:17;;;;;;;;;;;;;;;0.56;100.00;99842.88;5087313;22;2307;-74
2022/01/06 02:32:44;;;;;;;;;;;;;;;0.55;100.00;99852.69;5071440;28;761;-72
2022/01/06 02:35:11;;;;;;;;;;;;;;;0.54;100.00;99855.47;5071164;28;930;-74
2022/01/06 02:37:39;;;;;;;;;;;;;;;0.40;100.00;99857.06;5070926;28;895;-75
2022/01/06 02:40:08;;;;;;;;;;;;;;;0.35;100.00;99876.91;5083485;28;1315;-73
2022/01/06 02:42:35;;;;;;;;;;;;;;;0.34;100.00;99881.41;5073991;28;518;-74
2022/01/06 02:45:01;;;;;;;;;;;;;;;0.33;100.00;99875.22;5091918;28;1976;-73
2022/01/06 02:47:28;;;;;;;;;;;;;;;0.36;100.00;99886.66;5073472;28;958;-74
2022/01/06 02:49:54;;;;;;;;;;;;;;;0.38;100.00;99892.78;5073723;28;1350;-75
2022/01/06 02:52:20;;;;;;;;;;;;;;;0.38;100.00;99909.66;5091827;28;986;-74
2022/01/06 02:54:48;;;;;;;;;;;;;;;0.35;100.00;99909.84;5073532;28;1030;-73
2022/01/06 02:57:14;;;;;;;;;;;;;;;0.32;100.00;99918.84;5091545;28;1070;-74
2022/01/06 02:59:40;;;;;;;;;;;;;;;0.30;100.00;99927.88;5091443;28;1306;-74
2022/01/06 03:02:06;;;;;;;;;;;;;;;0.19;100.00;99935.56;5091565;28;1010;-71
2022/01/06 03:04:33;;;;;;;;;;;;;;;0.08;100.00;99929.00;5091647;28;1914;-75
2022/01/06 03:07:01;;;;;;;;;;;;;;;0.05;100.00;99945.13;5091162;28;1076;-74
2022/01/06 03:09:37;;;;;;;;;;;;;;;-0.07;100.00;99959.09;5073311;28;1307;-74
2022/01/06 03:12:05;;;;;;;;;;;;;;;-0.19;100.00;99956.09;5091377;28;904;-74
2022/01/06 03:14:32;;;;;;;;;;;;;;;-0.23;100.00;99967.88;5073248;28;1110;-74
2022/01/06 03:16:58;;;;;;;;;;;;;;;-0.30;100.00;99977.09;5090950;28;994;-74
2022/01/06 03:19:24;;;;;;;;;;;;;;;-0.32;100.00;99981.66;5091158;28;1345;-75
2022/01/06 03:21:51;;;;;;;;;;;;;;;-0.41;100.00;99979.41;5072917;28;990;-74
2022/01/06 03:24:17;;;;;;;;;;;;;;;-0.50;100.00;99978.03;5091181;28;1918;-74
2022/01/06 03:26:43;;;;;;;;;;;;;;;-0.54;100.00;99993.31;5091074;28;740;-74
2022/01/06 03:29:11;;;;;;;;;;;;;;;-0.60;100.00;100011.41;5090980;28;1351;-73
2022/01/06 03:31:37;;;;;;;;;;;;;;;-0.62;100.00;100011.47;5091058;28;911;-73
2022/01/06 03:34:03;;;;;;;;;;;;;;;-0.60;100.00;100022.94;5072050;28;923;-73
2022/01/06 03:36:30;;;;;;;;;;;;;;;-0.61;100.00;100026.53;5090525;28;1013;-73
2022/01/06 03:38:56;;;;;;;;;;;;;;;-0.65;100.00;100032.94;5090832;28;1395;-73
2022/01/06 03:41:22;;;;;;;;;;;;;;;-0.70;100.00;100037.63;5073137;28;879;-74
2022/01/06 03:43:48;;;;;;;;;;;;;;;-0.76;100.00;100040.56;5090670;28;1910;-74
2022/01/06 03:46:16;;;;;;;;;;;;;;;-0.83;100.00;100052.44;5055745;28;1413;-74
2022/01/06 03:48:42;;;;;;;;;;;;;;;-0.80;100.00;100058.50;5090966;28;1374;-74
2022/01/06 03:51:09;;;;;;;;;;;;;;;-0.81;100.00;100062.09;5090604;28;915;-73
2022/01/06 03:53:35;;;;;;;;;;;;;;;-0.90;100.00;100074.00;5072690;28;1415;-74
2022/01/06 03:56:01;;;;;;;;;;;;;;;-0.97;100.00;100087.69;5090396;28;1013;-74
2022/01/06 03:58:27;;;;;;;;;;;;;;;-1.04;100.00;100090.63;5091078;28;834;-75
2022/01/06 04:00:54;;;;;;;;;;;;;;;-1.09;100.00;100091.75;5090620;28;1365;-74
2022/01/06 04:03:21;;;;;;;;;;;;;;;-1.15;100.00;100089.34;5090908;28;808;-75
2022/01/06 04:05:48;;;;;;;;;;;;;;;-1.17;100.00;100101.88;5090739;28;1935;-74
2022/01/06 04:08:14;;;;;;;;;;;;;;;-1.23;100.00;100119.84;5090863;28;990;-75
2022/01/06 04:10:40;;;;;;;;;;;;;;;-1.26;100.00;100113.78;5090651;28;1286;-73
2022/01/06 04:13:06;;;;;;;;;;;;;;;-1.29;100.00;100113.91;5090773;28;1476;-73
2022/01/06 04:15:33;;;;;;;;;;;;;;;-1.28;100.00;100129.81;5090555;28;1006;-73
2022/01/06 04:17:59;;;;;;;;;;;;;;;-1.29;100.00;100130.75;5090754;28;828;-73
2022/01/06 04:20:27;;;;;;;;;;;;;;;-1.32;100.00;100136.22;5072550;28;1320;-73
2022/01/06 04:22:53;;;;;;;;;;;;;;;-1.35;100.00;100146.97;5072690;28;1009;-73
2022/01/06 04:25:19;;;;;;;;;;;;;;;-1.44;100.00;100150.00;5090453;28;1976;-73
2022/01/06 04:27:45;;;;;;;;;;;;;;;-1.53;100.00;100156.59;5072510;28;1053;-74
2022/01/06 04:30:12;;;;;;;;;;;;;;;-1.62;100.00;100156.94;5090308;28;1400;-73
2022/01/06 04:32:39;;;;;;;;;;;;;;;-1.69;100.00;100153.66;5090535;28;990;-73
2022/01/06 04:35:06;;;;;;;;;;;;;;;-1.67;100.00;100164.25;5072414;28;1233;-75
2022/01/06 04:37:34;;;;;;;;;;;;;;;-1.68;100.00;100168.72;5090388;28;1060;-73
2022/01/06 04:40:00;;;;;;;;;;;;;;;-1.68;100.00;100174.03;5090397;28;1281;-72
2022/01/06 04:42:26;;;;;;;;;;;;;;;-1.72;100.00;100173.28;5090607;28;768;-75
2022/01/06 04:44:53;;;;;;;;;;;;;;;-1.70;100.00;100175.88;5072288;28;1981;-75
2022/01/06 04:47:19;;;;;;;;;;;;;;;-1.73;100.00;100179.53;5072288;28;871;-75
2022/01/06 04:49:45;;;;;;;;;;;;;;;-1.67;100.00;100185.53;5069399;28;2310;-75
2022/01/06 04:52:12;;;;;;;;;;;;;;;-1.69;100.00;100182.94;5090269;28;1052;-74
2022/01/06 04:54:39;;;;;;;;;;;;;;;-1.71;100.00;100188.34;5072130;28;1240;-74
2022/01/06 04:57:06;;;;;;;;;;;;;;;-1.74;100.00;100195.56;5090406;28;1049;-74
2022/01/06 04:59:32;;;;;;;;;;;;;;;-1.82;100.00;100202.97;5092049;28;1307;-73
2022/01/06 05:01:58;;;;;;;;;;;;;;;-1.91;100.00;100197.09;5094580;28;729;-73
2022/01/06 05:04:25;;;;;;;;;;;;;;;-1.96;100.00;100199.06;5094165;28;1902;-74
2022/01/06 05:06:51;;;;;;;;;;;;;;;-1.97;100.00;100199.97;5075677;28;903;-75
2022/01/06 05:09:18;;;;;;;;;;;;;;;-2.03;100.00;100217.03;5093994;28;1368;-74
2022/01/06 05:11:45;;;;;;;;;;;;;;;-2.07;100.00;100209.22;5075668;28;1026;-75
2022/01/06 05:14:12;;;;;;;;;;;;;;;-2.03;100.00;100214.38;5093946;28;1048;-73
2022/01/06 05:16:38;;;;;;;;;;;;;;;-2.03;100.00;100218.84;5075286;28;910;-73
2022/01/06 05:19:04;;;;;;;;;;;;;;;-2.01;100.00;100222.28;5075651;28;1406;-74
2022/01/06 05:21:32;;;;;;;;;;;;;;;-2.03;100.00;100229.47;5093957;28;986;-74
2022/01/06 05:23:59;;;;;;;;;;;;;;;-2.12;100.00;100230.66;5093723;28;793;-75
2022/01/06 05:26:25;;;;;;;;;;;;;;;-2.13;100.00;100228.06;5075119;28;1914;-74
2022/01/06 05:28:53;;;;;;;;;;;;;;;-2.16;100.00;100234.38;5094107;28;1317;-75
2022/01/06 05:31:19;;;;;;;;;;;;;;;-2.22;100.00;100238.13;5094456;28;808;-75
2022/01/06 05:33:46;;;;;;;;;;;;;;;-2.21;100.00;100253.13;5092550;28;1559;-74
2022/01/06 05:36:13;;;;;;;;;;;;;;;-2.17;100.00;100253.91;5090480;28;1561;-72
2022/01/06 05:38:39;;;;;;;;;;;;;;;-2.17;100.00;100263.69;5093527;28;868;-72
2022/01/06 05:41:05;;;;;;;;;;;;;;;-2.20;100.00;100272.63;5093516;28;1544;-75
2022/01/06 05:43:32;;;;;;;;;;;;;;;-2.24;100.00;100274.53;5092996;28;1441;-73
2022/01/06 05:46:00;;;;;;;;;;;;;;;-2.24;100.00;100271.00;5093030;28;1980;-76
2022/01/06 05:48:26;;;;;;;;;;;;;;;-2.28;100.00;100280.03;5093318;28;1571;-72
2022/01/06 05:50:52;;;;;;;;;;;;;;;-2.34;100.00;100283.75;5092715;28;1304;-72
2022/01/06 05:53:20;;;;;;;;;;;;;;;-2.38;100.00;100290.97;5057767;28;1510;-71
2022/01/06 05:55:46;;;;;;;;;;;;;;;-2.40;100.00;100302.59;5092427;28;867;-72
2022/01/06 05:58:12;;;;;;;;;;;;;;;-2.46;100.00;100310.75;5080731;28;1254;-72
2022/01/06 06:00:39;;;;;;;;;;;;;;;-2.53;100.00;100315.41;5054540;28;1399;-75
2022/01/06 06:03:06;;;;;;;;;;;;;;;-2.61;100.00;100320.97;5072391;28;1037;-73
2022/01/06 06:05:33;;;;;;;;;;;;;;;-2.64;100.00;100323.75;5054465;28;1993;-73
2022/01/06 06:07:59;;;;;;;;;;;;;;;-2.66;100.00;100330.03;5081582;28;1475;-72
2022/01/06 06:10:25;;;;;;;;;;;;;;;-2.66;100.00;100333.53;5092401;28;1336;-75
2022/01/06 06:12:53;;;;;;;;;;;;;;;-2.66;100.00;100338.00;5058236;28;955;-74
2022/01/06 06:15:19;;;;;;;;;;;;;;;-2.66;100.00;100341.53;5092900;28;983;-74
2022/01/06 06:17:45;;;;;;;;;;;;;;;-2.67;100.00;100346.88;5092785;28;958;-74
2022/01/06 06:20:14;;;;;;;;;;;;;;;-2.67;100.00;100345.13;5074541;28;1393;-74
2022/01/06 06:22:41;;;;;;;;;;;;;;;-2.68;100.00;100356.66;5061710;28;1276;-72
2022/01/06 06:25:07;;;;;;;;;;;;;;;-2.74;100.00;100357.75;5092909;28;1913;-73
2022/01/06 06:27:34;;;;;;;;;;;;;;;-2.76;100.00;100366.66;5092495;28;998;-73
2022/01/06 06:30:00;;;;;;;;;;;;;;;-2.77;100.00;100372.91;5091894;28;1335;-74
2022/01/06 06:32:28;;;;;;;;;;;;;;;-2.78;100.00;100379.13;5081931;28;1468;-75
2022/01/06 06:34:55;;;;;;;;;;;;;;;-2.78;100.00;100384.44;5071849;28;1072;-74
2022/01/06 06:37:23;;;;;;;;;;;;;;;-2.80;100.00;100383.63;5087694;28;1223;-75
2022/01/06 06:39:49;;;;;;;;;;;;;;;-2.80;100.00;100384.50;5059185;28;1439;-73
2022/01/06 06:42:16;;;;;;;;;;;;;;;-2.76;100.00;100393.25;5071944;28;1115;-74
2022/01/06 06:44:42;;;;;;;;;;;;;;;-2.79;100.00;100398.63;5088542;28;1906;-75
2022/01/06 06:47:08;;;;;;;;;;;;;;;-2.86;100.00;100409.47;5073016;28;785;-75
2022/01/06 06:49:36;;;;;;;;;;;;;;;-2.89;100.00;100409.53;5091349;28;1332;-76
2022/01/06 06:52:03;;;;;;;;;;;;;;;-2.93;100.00;100418.53;5091579;28;1477;-74
2022/01/06 06:54:30;;;;;;;;;;;;;;;-2.90;100.00;100409.59;5087259;28;1163;-74
2022/01/06 06:56:57;;;;;;;;;;;;;;;-2.91;100.00;100422.03;5067389;28;1311;-73
2022/01/06 06:59:23;;;;;;;;;;;;;;;-2.89;100.00;100417.50;5093262;28;1579;-76
2022/01/06 07:01:49;;;;;;;;;;;;;;;-2.82;100.00;100428.81;5075640;28;907;-75
2022/01/06 07:04:15;;;;;;;;;;;;;;;-2.79;100.00;100428.75;5074854;28;1154;-76
2022/01/06 07:06:42;;;;;;;;;;;;;;;-2.77;100.00;100432.22;5089385;28;1984;-75
2022/01/06 07:09:08;;;;;;;;;;;;;;;-2.74;100.00;100436.56;5091651;28;1349;-76
2022/01/06 07:11:36;;;;;;;;;;;;;;;-2.68;100.00;100440.84;5090858;28;940;-76
2022/01/06 07:14:02;;;;;;;;;;;;;;;-2.66;100.00;100452.28;5091305;28;1572;-74
2022/01/06 07:16:28;;;;;;;;;;;;;;;-2.63;100.00;100453.06;5089608;28;1583;-75
2022/01/06 07:18:54;;;;;;;;;;;;;;;-2.62;100.00;100457.47;5089982;28;1439;-74
2022/01/06 07:21:21;;;;;;;;;;;;;;;-2.61;100.00;100458.31;5072462;28;1575;-74
2022/01/06 07:23:47;;;;;;;;;;;;;;;-2.60;100.00;100478.69;5044984;28;1326;-76
2022/01/06 07:26:14;;;;;;;;;;;;;;;-2.57;100.00;100468.81;5070069;28;1934;-74
2022/01/06 07:28:41;;;;;;;;;;;;;;;-2.47;100.00;100468.50;5071207;28;1159;-73
2022/01/06 07:31:08;;;;;;;;;;;;;;;-2.45;100.00;100480.84;5092694;28;1353;-73
2022/01/06 07:33:34;;;;;;;;;;;;;;;-2.38;100.00;100476.22;5110878;28;1010;-76
2022/01/06 07:36:00;;;;;;;;;;;;;;;-2.28;100.00;100488.31;5052582;28;1544;-74
2022/01/06 07:38:26;;;;;;;;;;;;;;;-2.20;100.00;100491.56;5070837;28;907;-76
2022/01/06 07:40:53;;;;;;;;;;;;;;;-2.14;100.00;100505.59;5070235;28;1408;-74
2022/01/06 07:43:19;;;;;;;;;;;;;;;-2.06;100.00;100500.91;5065157;28;1508;-75
2022/01/06 07:45:48;;;;;;;;;;;;;;;-1.98;100.00;100500.66;5089827;28;1910;-75
2022/01/06 07:48:20;;;;;;;;;;;;;;;-1.90;100.00;100504.81;5090355;28;944;-77
2022/01/06 07:50:47;;;;;;;;;;;;;;;-1.75;100.00;100505.19;5090540;28;1387;-77
2022/01/06 07:53:13;;;;;;;;;;;;;;;-1.61;100.00;100526.91;5089999;28;941;-75
2022/01/06 07:55:40;;;;;;;;;;;;;;;-1.47;100.00;100520.25;5071742;28;1061;-75
2022/01/06 07:58:06;;;;;;;;;;;;;;;-1.39;100.00;100515.50;5084694;28;1508;-76
2022/01/06 08:00:32;;;;;;;;;;;;;;;-1.37;100.00;100511.03;5079672;28;1547;-77
2022/01/06 08:03:00;;;;;;;;;;;;;;;-1.31;100.00;100526.78;5070890;28;1552;-75
2022/01/06 08:05:27;;;;;;;;;;;;;;;-1.23;100.00;100531.81;5078846;28;1971;-76
2022/01/06 08:07:53;;;;;;;;;;;;;;;-1.10;100.00;100535.78;5089486;28;1083;-77
2022/01/06 08:10:21;;;;;;;;;;;;;;;-0.99;100.00;100540.72;5090080;28;1332;-76
2022/01/06 08:12:47;;;;;;;;;;;;;;;-0.83;100.00;100545.50;5090154;28;942;-76
2022/01/06 08:15:14;;;;;;;;;;;;;;;-0.76;100.00;100547.00;5072109;28;1073;-76
2022/01/06 08:17:40;;;;;;;;;;;;;;;-0.78;100.00;100546.22;5089828;28;1047;-76
2022/01/06 08:20:09;;;;;;;;;;;;;;;-0.68;100.00;100545.81;5090447;28;1371;-77
2022/01/06 08:22:36;;;;;;;;;;;;;;;-0.75;100.00;100554.09;5086477;28;1551;-76
2022/01/06 08:25:02;;;;;;;;;;;;;;;-0.68;100.00;100545.81;5069382;28;974;-74
2022/01/06 08:27:29;;;;;;;;;;;;;;;-0.46;100.00;100557.47;5085664;28;1918;-74
2022/01/06 08:29:55;;;;;;;;;;;;;;;-0.43;100.00;100554.69;5069141;28;1392;-76
2022/01/06 08:32:23;;;;;;;;;;;;;;;-0.17;100.00;100567.03;5093210;22;4218;-79
2022/01/06 08:34:50;;;;;;;;;;;;;;;-0.04;100.00;100573.63;5098829;28;1513;-76
2022/01/06 08:37:18;;;;;;;;;;;;;;;0.25;100.00;100574.22;5093877;28;1386;-77
2022/01/06 08:39:45;;;;;;;;;;;;;;;0.54;100.00;100582.84;5098518;28;914;-77
2022/01/06 08:42:12;;;;;;;;;;;;;;;0.61;100.00;100586.13;5100990;28;1500;-77
2022/01/06 08:44:39;;;;;;;;;;;;;;;0.56;100.00;100583.66;5100412;28;1066;-75
2022/01/06 08:47:06;;;;;;;;;;;;;;;0.60;100.00;100589.72;5081939;28;1950;-77
2022/01/06 08:49:33;;;;;;;;;;;;;;;0.86;100.00;100593.97;5102818;28;1120;-78
2022/01/06 08:52:00;;;;;;;;;;;;;;;0.80;100.00;100583.53;5103086;28;1449;-77
2022/01/06 08:54:27;;;;;;;;;;;;;;;0.95;100.00;100590.91;5100564;28;1480;-77
2022/01/06 08:56:54;;;;;;;;;;;;;;;1.07;100.00;100592.19;5086486;28;1509;-77
2022/01/06 08:59:20;;;;;;;;;;;;;;;1.21;100.00;100593.38;5081189;28;1317;-75
2022/01/06 09:01:47;;;;;;;;;;;;;;;1.30;100.00;100598.31;5085025;28;1522;-76
2022/01/06 09:04:13;;;;;;;;;;;;;;;1.56;100.00;100602.47;5080530;28;1381;-77
2022/01/06 09:06:40;;;;;;;;;;;;;;;1.73;100.00;100611.56;5095043;28;1896;-76
2022/01/06 09:09:06;;;;;;;;;;;;;;;1.58;100.00;100607.78;5100604;28;1524;-75
2022/01/06 09:11:34;;;;;;;;;;;;;;;1.70;100.00;100617.03;5062026;28;1339;-76
2022/01/06 09:14:00;;;;;;;;;;;;;;;1.64;100.00;100618.19;5096398;28;1541;-77
2022/01/06 09:16:26;;;;;;;;;;;;;;;2.03;100.00;100629.78;5092686;28;1481;-77
2022/01/06 09:18:53;;;;;;;;;;;;;;;2.05;100.00;100638.63;5059131;28;1552;-76
2022/01/06 09:21:22;;;;;;;;;;;;;;;2.13;100.00;100644.50;5094323;28;1294;-76
2022/01/06 09:23:52;;;;;;;;;;;;;;;2.05;100.00;100650.19;5076161;28;1484;-78
2022/01/06 09:26:19;;;;;;;;;;;;;;;2.09;100.00;100657.16;5094110;28;1910;-76
2022/01/06 09:28:47;;;;;;;;;;;;;;;2.34;100.00;100650.63;5094991;28;1511;-77
2022/01/06 09:31:13;;;;;;;;;;;;;;;2.36;100.00;100659.44;5059482;28;1195;-76
2022/01/06 09:33:39;;;;;;;;;;;;;;;2.44;100.00;100662.63;5076105;28;1237;-76
2022/01/06 09:36:06;;;;;;;;;;;;;;;2.41;100.00;100661.94;5090812;28;1251;-76
2022/01/06 09:38:32;;;;;;;;;;;;;;;2.47;100.00;100675.00;5071914;28;1276;-75
2022/01/06 09:41:03;;;;;;;;;;;;;;;2.55;100.00;100678.19;5091769;28;1213;-76
2022/01/06 09:43:30;;;;;;;;;;;;;;;2.61;100.00;100677.91;5096190;28;1389;-77
2022/01/06 09:46:01;;;;;;;;;;;;;;;2.58;100.00;100686.09;5096846;28;1910;-76
2022/01/06 09:48:28;;;;;;;;;;;;;;;2.33;100.00;100673.84;5096693;28;1524;-77
2022/01/06 09:50:54;;;;;;;;;;;;;;;2.46;100.00;100695.59;5075504;28;1144;-77
2022/01/06 09:53:21;;;;;;;;;;;;;;;2.60;100.00;100694.91;5092155;28;1489;-76
2022/01/06 09:55:47;;;;;;;;;;;;;;;2.79;100.00;100699.38;5099073;28;952;-78
2022/01/06 09:58:21;;;;;;;;;;;;;;;2.37;100.00;100700.53;5077639;28;1574;-77
2022/01/06 10:00:48;;;;;;;;;;;;;;;2.47;100.00;100708.06;5074354;28;1539;-79
2022/01/06 10:03:15;;;;;;;;;;;;;;;2.49;100.00;100703.47;5083580;28;1368;-78
2022/01/06 10:05:43;;;;;;;;;;;;;;;2.53;100.00;100709.56;5096235;28;1357;-77
2022/01/06 10:08:09;;;;;;;;;;;;;;;2.57;100.00;100715.66;5096170;28;1910;-76
2022/01/06 10:10:36;;;;;;;;;;;;;;;2.61;100.00;100714.56;5060873;28;1465;-77
2022/01/06 10:13:06;;;;;;;;;;;;;;;2.80;100.00;100718.06;5079633;28;1257;-75
2022/01/06 10:15:33;;;;;;;;;;;;;;;3.15;100.00;100722.63;5080189;28;1508;-78
2022/01/06 10:18:10;;;;;;;;;;;;;;;2.77;100.00;100718.22;5119059;28;1106;-77
2022/01/06 10:20:37;;;;;;;;;;;;;;;2.77;100.00;100726.25;5083727;28;1065;-77
2022/01/06 10:23:10;;;;;;;;;;;;;;;2.88;100.00;100725.75;5101649;28;1320;-77
2022/01/06 10:25:38;;;;;;;;;;;;;;;2.94;100.00;100737.97;5063717;28;1513;-78
2022/01/06 10:28:13;;;;;;;;;;;;;;;3.00;100.00;100727.81;5062681;28;1994;-77
2022/01/06 10:30:47;;;;;;;;;;;;;;;3.03;100.00;100729.47;5097324;28;1046;-78
2022/01/06 10:33:14;;;;;;;;;;;;;;;2.46;100.00;100737.56;5080528;28;1334;-77
2022/01/06 10:35:42;;;;;;;;;;;;;;;2.09;100.00;100726.78;5064163;28;1516;-76
2022/01/06 10:38:09;;;;;;;;;;;;;;;1.89;100.00;100732.19;5084624;28;1109;-77
2022/01/06 10:40:35;;;;;;;;;;;;;;;2.12;100.00;100741.84;5101223;28;1077;-77
2022/01/06 10:43:05;;;;;;;;;;;;;;;2.20;100.00;100749.53;5098431;28;1512;-77
2022/01/06 10:45:32;;;;;;;;;;;;;;;2.29;100.00;100754.47;5050166;28;1184;-78
2022/01/06 10:47:59;;;;;;;;;;;;;;;2.31;100.00;100760.59;5039834;28;1914;-77
2022/01/06 10:50:27;;;;;;;;;;;;;;;2.43;100.00;100761.84;5088100;28;1888;-74
2022/01/06 10:52:55;;;;;;;;;;;;;;;2.41;100.00;100758.38;5090679;28;1417;-75
2022/01/06 10:55:25;;;;;;;;;;;;;;;2.27;100.00;100767.94;5077411;28;1185;-77
2022/01/06 10:57:52;;;;;;;;;;;;;;;2.42;100.00;100776.19;5072774;28;948;-76
2022/01/06 11:00:20;;;;;;;;;;;;;;;2.34;100.00;100771.19;5073660;28;1520;-75
2022/01/06 11:02:46;;;;;;;;;;;;;;;2.34;100.00;100779.22;5090957;28;1329;-75
2022/01/06 11:05:12;;;;;;;;;;;;;;;2.29;100.00;100773.22;5086927;28;1567;-75
2022/01/06 11:07:39;;;;;;;;;;;;;;;2.33;100.00;100781.03;5075549;28;1914;-77
2022/01/06 11:10:14;;;;;;;;;;;;;;;2.40;100.00;100795.00;5091076;28;998;-76
2022/01/06 11:12:41;;;;;;;;;;;;;;;2.44;100.00;100790.38;5091087;28;1413;-74
2022/01/06 11:15:08;;;;;;;;;;;;;;;2.45;100.00;100792.13;5090610;28;1481;-75
2022/01/06 11:17:35;;;;;;;;;;;;;;;2.37;100.00;100795.16;5071555;28;1321;-75
2022/01/06 11:20:01;;;;;;;;;;;;;;;2.35;100.00;100786.31;5083162;28;1548;-74
2022/01/06 11:22:27;;;;;;;;;;;;;;;2.39;100.00;100797.75;5053354;28;1337;-74
2022/01/06 11:24:54;;;;;;;;;;;;;;;2.41;100.00;100802.13;5084885;28;1263;-76
2022/01/06 11:27:31;;;;;;;;;;;;;;;2.25;100.00;100801.94;5072132;28;1989;-75
2022/01/06 11:30:07;;;;;;;;;;;;;;;2.30;100.00;100804.44;5090016;28;1242;-75
2022/01/06 11:32:34;;;;;;;;;;;;;;;2.36;100.00;100804.13;5073515;28;1508;-76
2022/01/06 11:35:01;;;;;;;;;;;;;;;2.36;100.00;100795.22;5071784;28;1437;-76
2022/01/06 11:37:38;;;;;;;;;;;;;;;2.24;100.00;100807.38;5075857;28;1480;-75
2022/01/06 11:40:05;;;;;;;;;;;;;;;2.41;100.00;100818.19;5072478;28;1166;-75
2022/01/06 11:42:33;;;;;;;;;;;;;;;2.40;100.00;100824.47;5069051;28;1400;-75
2022/01/06 11:44:59;;;;;;;;;;;;;;;2.57;100.00;100830.91;5071990;28;832;-77
2022/01/06 11:47:29;;;;;;;;;;;;;;;2.81;100.00;100832.41;5085714;28;1917;-77
2022/01/06 11:50:06;;;;;;;;;;;;;;;3.12;100.00;100836.31;5070542;28;1034;-77
2022/01/06 11:52:32;;;;;;;;;;;;;;;3.13;100.00;100829.16;5080120;28;1593;-77
2022/01/06 11:54:58;;;;;;;;;;;;;;;3.22;100.00;100844.81;5090169;28;1378;-77
2022/01/06 11:57:29;;;;;;;;;;;;;;;3.44;100.00;100841.91;5072738;28;919;-76
2022/01/06 11:59:56;;;;;;;;;;;;;;;3.50;100.00;100844.31;5073195;28;1351;-76
2022/01/06 12:02:23;;;;;;;;;;;;;;;3.40;100.00;100840.34;5077763;28;1336;-76
2022/01/06 12:04:56;;;;;;;;;;;;;;;3.37;100.00;100840.50;5052814;28;1217;-74
2022/01/06 12:07:23;;;;;;;;;;;;;;;3.23;100.00;100848.34;5090044;28;1926;-76
2022/01/06 12:09:56;;;;;;;;;;;;;;;3.06;100.00;100839.31;5082410;28;1425;-75
2022/01/06 12:12:31;;;;;;;;;;;;;;;2.86;100.00;100834.91;5069500;28;2070;-76
2022/01/06 12:15:05;;;;;;;;;;;;;;;2.72;100.00;100835.53;5040131;28;1315;-75
2022/01/06 12:17:32;;;;;;;;;;;;;;;2.70;100.00;100842.78;5074974;28;753;-74
2022/01/06 12:19:58;;;;;;;;;;;;;;;2.51;100.00;100834.72;5080510;28;1493;-75
2022/01/06 12:22:26;;;;;;;;;;;;;;;2.55;100.00;100838.13;5097407;28;1307;-76
2022/01/06 12:24:58;;;;;;;;;;;;;;;2.45;100.00;100841.22;5101533;28;1529;-75
2022/01/06 12:27:25;;;;;;;;;;;;;;;2.39;100.00;100836.13;5068694;28;1985;-76
2022/01/06 12:29:53;;;;;;;;;;;;;;;2.34;100.00;100830.13;5094273;28;1471;-77
2022/01/06 12:32:21;;;;;;;;;;;;;;;2.36;100.00;100844.31;5089866;28;1399;-76
2022/01/06 12:34:51;;;;;;;;;;;;;;;2.47;100.00;100842.03;5061755;28;1235;-75
2022/01/06 12:37:24;;;;;;;;;;;;;;;2.61;100.00;100845.91;5075340;28;1441;-76
2022/01/06 12:39:50;;;;;;;;;;;;;;;2.65;100.00;100848.34;5094350;28;887;-74
2022/01/06 12:42:16;;;;;;;;;;;;;;;2.71;100.00;100857.06;5094283;28;1317;-75
2022/01/06 12:44:42;;;;;;;;;;;;;;;2.87;100.00;100851.84;5094141;28;1040;-76
2022/01/06 12:47:09;;;;;;;;;;;;;;;2.98;100.00;100854.88;5093554;28;1981;-75
2022/01/06 12:49:37;;;;;;;;;;;;;;;2.96;100.00;100840.69;5093909;28;816;-76
2022/01/06 12:52:06;;;;;;;;;;;;;;;3.06;100.00;100862.56;5093850;28;1396;-75
2022/01/06 12:54:33;;;;;;;;;;;;;;;3.14;100.00;100865.75;5094274;28;1041;-74